Time;durP1;ratioP1;P1;durP2;ratioP2;P2;SDS_P1;SDS_P2;PMS_P1;PMS_P2;Temp;Humidity;BMP_temperature;BMP_pressure;BME280_temperature;BME280_humidity;BME280_pressure;Samples;Min_cycle;Max_cycle;Signal;HPM_P1;HPM_P2
2024/01/27 00:01:17;;;;;;;8.27;4.78;;;;;;;3.88;100.00;98287.38;5015455;28;20049;-71
2024/01/27 00:03:42;;;;;;;7.97;4.38;;;;;;;3.96;100.00;98292.19;5019065;28;20072;-70
2024/01/27 00:06:08;;;;;;;5.93;4.28;;;;;;;4.12;100.00;98287.44;5013898;28;20710;-71
2024/01/27 00:08:33;;;;;;;8.82;4.15;;;;;;;4.24;100.00;98292.47;5020963;28;20049;-71
2024/01/27 00:10:59;;;;;;;6.40;3.95;;;;;;;4.37;100.00;98283.66;5022629;28;20038;-70
2024/01/27 00:13:24;;;;;;;6.15;4.28;;;;;;;4.47;100.00;98288.19;5016754;28;20052;-71
2024/01/27 00:15:51;;;;;;;5.10;3.97;;;;;;;4.50;100.00;98282.19;5020187;28;20055;-71
2024/01/27 00:18:16;;;;;;;7.68;4.70;;;;;;;4.47;100.00;98293.63;5015711;28;20048;-72
2024/01/27 00:20:42;;;;;;;7.15;4.38;;;;;;;4.45;100.00;98294.97;5019970;28;20037;-71
2024/01/27 00:23:08;;;;;;;7.63;4.47;;;;;;;4.42;100.00;98295.56;5015168;28;20045;-71
2024/01/27 00:25:33;;;;;;;7.55;4.60;;;;;;;4.52;100.00;98304.41;5019211;28;20065;-71
2024/01/27 00:27:59;;;;;;;6.93;4.47;;;;;;;4.49;100.00;98312.31;5040005;28;20040;-72
2024/01/27 00:30:25;;;;;;;7.32;4.65;;;;;;;4.46;100.00;98310.19;5019063;28;20046;-72
2024/01/27 00:32:50;;;;;;;7.88;4.68;;;;;;;4.50;100.00;98309.31;5020405;28;20072;-71
2024/01/27 00:35:16;;;;;;;7.32;4.22;;;;;;;4.54;100.00;98304.94;5018412;28;20407;-71
2024/01/27 00:37:41;;;;;;;9.50;4.57;;;;;;;4.47;100.00;98304.47;5023810;28;20084;-71
2024/01/27 00:40:10;;;;;;;11.88;5.45;;;;;;;4.31;100.00;98305.72;5016992;28;20513;-70
2024/01/27 00:42:37;;;;;;;7.65;4.40;;;;;;;4.22;100.00;98308.25;5020436;28;20053;-71
2024/01/27 00:45:04;;;;;;;7.57;4.93;;;;;;;4.20;100.00;98316.66;5014795;28;20046;-72
2024/01/27 00:47:30;;;;;;;8.07;4.63;;;;;;;4.24;100.00;98319.59;5022144;28;20124;-71
2024/01/27 00:49:56;;;;;;;8.55;4.85;;;;;;;4.39;100.00;98316.75;5019686;28;20111;-71
2024/01/27 00:52:21;;;;;;;13.73;7.70;;;;;;;4.54;100.00;98318.50;5014599;28;20069;-71
2024/01/27 00:54:46;;;;;;;11.10;5.93;;;;;;;4.66;100.00;98314.56;5018213;28;20037;-71
2024/01/27 00:57:12;;;;;;;6.95;4.60;;;;;;;4.66;100.00;98320.81;5015232;28;20102;-71
2024/01/27 00:59:38;;;;;;;5.22;3.97;;;;;;;4.54;100.00;98312.28;5019525;28;20121;-70
2024/01/27 01:02:04;;;;;;;6.07;3.83;;;;;;;4.57;100.00;98317.94;5014751;28;20051;-71
2024/01/27 01:04:29;;;;;;;9.25;4.43;;;;;;;4.63;100.00;98326.81;5018817;28;20140;-70
2024/01/27 01:06:55;;;;;;;6.70;4.20;;;;;;;4.74;100.00;98322.09;5020577;28;20209;-71
2024/01/27 01:09:20;;;;;;;7.82;4.35;;;;;;;4.75;100.00;98321.81;5013815;28;20053;-71
2024/01/27 01:11:46;;;;;;;6.65;3.78;;;;;;;4.77;100.00;98324.22;5019150;28;20602;-70
2024/01/27 01:14:11;;;;;;;6.45;4.57;;;;;;;4.73;100.00;98323.97;5012645;28;20529;-71
2024/01/27 01:16:37;;;;;;;8.35;5.05;;;;;;;4.72;100.00;98330.53;5019331;28;20049;-71
2024/01/27 01:19:02;;;;;;;8.18;4.85;;;;;;;4.71;100.00;98323.47;5016214;28;20053;-72
2024/01/27 01:21:28;;;;;;;7.63;4.78;;;;;;;4.68;100.00;98324.06;5018475;28;20045;-70
2024/01/27 01:23:54;;;;;;;8.32;4.10;;;;;;;4.69;100.00;98325.66;5019200;28;20405;-70
2024/01/27 01:26:19;;;;;;;5.70;3.47;;;;;;;4.67;100.00;98321.63;5013139;28;20060;-71
2024/01/27 01:28:44;;;;;;;7.00;3.90;;;;;;;4.57;100.00;98333.38;5019833;28;20053;-70
2024/01/27 01:31:10;;;;;;;7.82;4.35;;;;;;;4.57;100.00;98325.25;5013362;28;20119;-70
2024/01/27 01:33:35;;;;;;;11.23;4.28;;;;;;;4.60;100.00;98330.91;5018965;28;20053;-71
2024/01/27 01:36:01;;;;;;;5.93;3.63;;;;;;;4.56;100.00;98329.06;5017519;28;20355;-71
2024/01/27 01:38:26;;;;;;;5.47;3.50;;;;;;;4.45;100.00;98333.78;5011414;28;20394;-70
2024/01/27 01:40:51;;;;;;;5.93;3.67;;;;;;;4.43;100.00;98346.84;5020793;28;20041;-70
2024/01/27 01:43:17;;;;;;;5.78;3.22;;;;;;;4.19;100.00;98344.06;5017337;28;20049;-70
2024/01/27 01:45:42;;;;;;;6.43;3.45;;;;;;;4.09;100.00;98353.09;5026679;28;20053;-70
2024/01/27 01:48:09;;;;;;;7.07;3.80;;;;;;;4.15;100.00;98349.25;5017622;28;20049;-71
2024/01/27 01:50:34;;;;;;;7.53;3.60;;;;;;;4.20;100.00;98348.41;5026813;28;20407;-70
2024/01/27 01:53:00;;;;;;;8.55;3.65;;;;;;;4.21;100.00;98345.41;5026662;28;20048;-70
2024/01/27 01:55:26;;;;;;;7.15;3.70;;;;;;;4.24;100.00;98344.00;5016848;28;20384;-71
2024/01/27 01:57:51;;;;;;;8.00;3.92;;;;;;;4.21;100.00;98337.28;5025213;28;20041;-70
2024/01/27 02:00:17;;;;;;;7.95;3.55;;;;;;;4.22;100.00;98335.34;5036155;28;20038;-70
2024/01/27 02:02:45;;;;;;;7.90;4.00;;;;;;;4.21;100.00;98326.41;5021262;28;20099;-71
2024/01/27 02:05:14;;;;;;;9.20;3.83;;;;;;;4.17;100.00;98335.41;5018588;28;20057;-70
2024/01/27 02:07:40;;;;;;;9.73;3.85;;;;;;;4.05;100.00;98333.03;5022432;28;20418;-71
2024/01/27 02:10:24;;;;;;;7.32;3.88;;;;;;;3.96;100.00;98340.16;5022839;28;20335;-72
2024/01/27 02:12:49;;;;;;;9.50;4.18;;;;;;;3.90;100.00;98333.19;5021041;28;20042;-71
2024/01/27 02:15:14;;;;;;;6.20;3.90;;;;;;;3.88;100.00;98340.78;5031404;28;20048;-71
2024/01/27 02:17:40;;;;;;;9.60;4.22;;;;;;;3.89;100.00;98345.09;5023957;28;20046;-71
2024/01/27 02:20:06;;;;;;;6.22;3.95;;;;;;;3.78;100.00;98337.06;5018912;28;20128;-71
2024/01/27 02:22:35;;;;;;;5.85;3.45;;;;;;;3.75;100.00;98337.63;5021612;28;20053;-70
2024/01/27 02:25:02;;;;;;;5.97;3.50;;;;;;;3.71;100.00;98330.31;5022678;28;20411;-69
2024/01/27 02:27:27;;;;;;;8.60;4.55;;;;;;;3.66;100.00;98339.31;5025805;28;20510;-71
2024/01/27 02:29:53;;;;;;;5.57;3.80;;;;;;;3.60;100.00;98337.72;5027205;28;20148;-71
2024/01/27 02:32:18;;;;;;;8.80;3.78;;;;;;;3.59;100.00;98342.34;5001380;28;20124;-72
2024/01/27 02:34:44;;;;;;;5.95;3.38;;;;;;;3.54;100.00;98347.78;5013977;28;20041;-72
2024/01/27 02:37:10;;;;;;;5.97;3.65;;;;;;;3.52;100.00;98349.16;5015456;28;20037;-72
2024/01/27 02:39:36;;;;;;;7.38;3.30;;;;;;;3.53;100.00;98343.47;5022381;28;20099;-71
2024/01/27 02:42:01;;;;;;;7.18;3.17;;;;;;;3.47;100.00;98344.56;5003022;28;20045;-69
2024/01/27 02:44:27;;;;;;;5.10;2.90;;;;;;;3.44;100.00;98351.38;5002619;28;20045;-71
2024/01/27 02:46:52;;;;;;;6.38;2.53;;;;;;;3.42;100.00;98356.25;5021822;28;20046;-71
2024/01/27 02:49:18;;;;;;;5.78;2.90;;;;;;;3.39;100.00;98356.81;5019314;28;20049;-70
2024/01/27 02:51:44;;;;;;;6.05;2.70;;;;;;;3.38;100.00;98357.06;5026134;28;20045;-70
2024/01/27 02:54:09;;;;;;;5.50;3.38;;;;;;;3.31;100.00;98359.28;5018234;28;20742;-71
2024/01/27 02:56:35;;;;;;;10.15;3.30;;;;;;;3.18;100.00;98358.78;5005182;28;20399;-70
2024/01/27 02:59:00;;;;;;;6.90;3.30;;;;;;;3.10;100.00;98359.38;5027615;28;20333;-70
2024/01/27 03:01:25;;;;;;;5.85;3.22;;;;;;;3.13;100.00;98353.41;5019692;28;20045;-70
2024/01/27 03:03:51;;;;;;;6.60;3.03;;;;;;;3.10;100.00;98361.25;5021296;28;20072;-71
2024/01/27 03:06:16;;;;;;;7.40;3.22;;;;;;;3.13;100.00;98366.13;5016486;28;20525;-70
2024/01/27 03:08:42;;;;;;;4.53;2.92;;;;;;;3.19;100.00;98368.53;5005350;28;20084;-71
2024/01/27 03:11:07;;;;;;;6.55;3.17;;;;;;;3.22;100.00;98367.16;5001339;28;20399;-70
2024/01/27 03:13:32;;;;;;;6.55;3.10;;;;;;;3.15;100.00;98370.19;5021125;28;20085;-70
2024/01/27 03:15:58;;;;;;;9.07;4.93;;;;;;;3.06;100.00;98367.25;5020554;28;20052;-70
2024/01/27 03:18:24;;;;;;;7.70;4.60;;;;;;;2.99;100.00;98361.31;5015468;28;20041;-71
2024/01/27 03:20:50;;;;;;;11.35;7.15;;;;;;;2.93;100.00;98380.56;5021904;28;20042;-70
2024/01/27 03:23:15;;;;;;;12.93;5.60;;;;;;;2.86;100.00;98387.06;5016485;28;20041;-70
2024/01/27 03:25:41;;;;;;;7.68;3.90;;;;;;;2.64;100.00;98387.38;5021578;28;20038;-71
2024/01/27 03:28:06;;;;;;;5.93;3.70;;;;;;;2.46;100.00;98379.84;5017661;28;20503;-70
2024/01/27 03:30:31;;;;;;;5.97;3.58;;;;;;;2.39;100.00;98388.22;5026448;28;20060;-71
2024/01/27 03:32:57;;;;;;;6.15;3.70;;;;;;;2.21;100.00;98386.88;5031461;28;20388;-71
2024/01/27 03:35:22;;;;;;;5.35;3.70;;;;;;;2.05;100.00;98385.25;5015750;28;20505;-71
2024/01/27 03:37:49;;;;;;;6.45;3.60;;;;;;;1.93;100.00;98382.81;5021985;28;20037;-71
2024/01/27 03:40:14;;;;;;;9.07;4.60;;;;;;;1.97;100.00;98381.19;5017040;28;20041;-72
2024/01/27 03:42:40;;;;;;;5.57;3.72;;;;;;;2.01;100.00;98384.19;5019637;28;20106;-72
2024/01/27 03:45:06;;;;;;;6.45;3.58;;;;;;;1.97;100.00;98397.41;5017358;28;20061;-72
2024/01/27 03:47:31;;;;;;;11.70;4.25;;;;;;;1.94;100.00;98395.25;5024211;28;20052;-72
2024/01/27 03:49:56;;;;;;;7.35;3.50;;;;;;;1.90;100.00;98397.66;5027669;28;20045;-72
2024/01/27 03:52:22;;;;;;;7.88;3.78;;;;;;;1.85;100.00;98399.56;5020046;28;20049;-72
2024/01/27 03:54:47;;;;;;;9.07;4.00;;;;;;;1.84;100.00;98400.66;5004173;28;20041;-72
2024/01/27 03:57:13;;;;;;;5.78;3.65;;;;;;;2.02;100.00;98408.22;5017429;28;20045;-71
2024/01/27 03:59:41;;;;;;;5.72;3.42;;;;;;;2.13;100.00;98417.16;5019915;28;20042;-72
2024/01/27 04:02:08;;;;;;;12.27;4.15;;;;;;;2.08;100.00;98414.44;5014851;28;20499;-71
2024/01/27 04:04:33;;;;;;;7.15;3.80;;;;;;;2.14;100.00;98416.06;5021016;28;20049;-70
2024/01/27 04:06:58;;;;;;;6.45;3.13;;;;;;;2.18;100.00;98419.03;5021151;28;20080;-71
2024/01/27 04:09:24;;;;;;;6.07;3.38;;;;;;;2.09;100.00;98416.88;5011601;28;20045;-71
2024/01/27 04:11:49;;;;;;;11.43;4.15;;;;;;;1.89;100.00;98423.09;5023855;28;20042;-71
2024/01/27 04:14:15;;;;;;;5.18;3.78;;;;;;;1.78;100.00;98426.03;5002434;28;20587;-71
2024/01/27 04:16:41;;;;;;;8.48;3.50;;;;;;;1.73;100.00;98426.84;5021121;28;20049;-71
2024/01/27 04:19:06;;;;;;;8.93;3.63;;;;;;;1.68;100.00;98426.81;5017542;28;20045;-71
2024/01/27 04:21:32;;;;;;;7.57;3.42;;;;;;;1.65;100.00;98424.63;5020032;28;20124;-69
2024/01/27 04:23:57;;;;;;;7.65;3.60;;;;;;;1.55;100.00;98422.72;5021448;28;20490;-71
2024/01/27 04:26:22;;;;;;;7.32;3.83;;;;;;;1.50;100.00;98428.13;5017754;28;20049;-71
2024/01/27 04:28:48;;;;;;;5.53;3.63;;;;;;;1.47;100.00;98421.34;5022142;28;20041;-71
2024/01/27 04:31:13;;;;;;;6.30;3.45;;;;;;;1.38;100.00;98424.81;4999490;28;20102;-71
2024/01/27 04:33:39;;;;;;;6.70;3.72;;;;;;;1.31;100.00;98427.75;5003229;28;20049;-70
2024/01/27 04:36:06;;;;;;;19.90;8.10;;;;;;;1.15;100.00;98432.28;5016133;28;20045;-70
2024/01/27 04:38:32;;;;;;;6.10;4.28;;;;;;;0.93;100.00;98427.84;5022001;28;20080;-70
2024/01/27 04:40:57;;;;;;;12.32;4.65;;;;;;;0.66;100.00;98436.03;5023445;28;20038;-72
2024/01/27 04:43:23;;;;;;;9.35;5.10;;;;;;;0.54;100.00;98430.84;5032987;28;20779;-71
2024/01/27 04:45:51;;;;;;;10.60;4.32;;;;;;;0.45;100.00;98435.09;5032232;28;20049;-69
2024/01/27 04:48:17;;;;;;;6.40;4.50;;;;;;;0.37;100.00;98438.25;5018933;28;20038;-70
2024/01/27 04:50:43;;;;;;;6.30;4.63;;;;;;;0.29;100.00;98439.56;5022189;28;20472;-71
2024/01/27 04:53:08;;;;;;;9.32;4.68;;;;;;;0.22;100.00;98447.03;5017547;28;20072;-71
2024/01/27 04:55:33;;;;;;;6.50;4.07;;;;;;;0.21;100.00;98439.22;5021211;28;20046;-70
2024/01/27 04:57:59;;;;;;;6.15;4.10;;;;;;;0.25;100.00;98446.50;5020314;28;20103;-71
2024/01/27 05:00:27;;;;;;;8.27;4.80;;;;;;;0.33;100.00;98447.94;5014324;28;20127;-72
2024/01/27 05:02:52;;;;;;;6.60;4.90;;;;;;;0.44;100.00;98446.94;5019478;28;20044;-72
2024/01/27 05:05:18;;;;;;;6.70;4.57;;;;;;;0.39;100.00;98444.19;5014588;28;20042;-71
2024/01/27 05:07:43;;;;;;;7.78;4.40;;;;;;;0.30;100.00;98446.56;5018353;28;20045;-71
2024/01/27 05:10:12;;;;;;;8.88;4.45;;;;;;;0.35;100.00;98437.72;5013413;28;20649;-71
2024/01/27 05:12:38;;;;;;;5.95;4.38;;;;;;;0.38;100.00;98443.41;5022535;28;20054;-70
2024/01/27 05:15:04;;;;;;;6.90;4.47;;;;;;;0.35;100.00;98446.59;5013043;28;20174;-73
2024/01/27 05:17:30;;;;;;;7.93;3.85;;;;;;;0.36;100.00;98442.84;5022940;28;20419;-71
2024/01/27 05:19:55;;;;;;;7.68;4.43;;;;;;;0.38;100.00;98440.69;5023168;28;20548;-71
2024/01/27 05:22:21;;;;;;;7.60;4.57;;;;;;;0.34;100.00;98445.00;5016206;28;20924;-71
2024/01/27 05:24:46;;;;;;;12.10;4.80;;;;;;;0.35;100.00;98446.59;5025763;28;20052;-70
2024/01/27 05:27:12;;;;;;;5.78;4.18;;;;;;;0.34;100.00;98439.59;5030541;28;20209;-72
2024/01/27 05:29:37;;;;;;;7.30;4.50;;;;;;;0.35;100.00;98446.59;5048603;28;20499;-71
2024/01/27 05:32:03;;;;;;;6.88;4.28;;;;;;;0.27;100.00;98446.25;5022054;28;20049;-72
2024/01/27 05:34:28;;;;;;;5.45;3.70;;;;;;;0.26;100.00;98450.84;5021975;28;20041;-72
2024/01/27 05:36:54;;;;;;;4.43;3.65;;;;;;;0.26;100.00;98450.03;5023683;28;20494;-71
2024/01/27 05:39:19;;;;;;;5.25;3.50;;;;;;;0.23;100.00;98448.66;5018432;28;20132;-72
2024/01/27 05:41:45;;;;;;;8.82;4.00;;;;;;;0.15;100.00;98446.44;5027228;28;20103;-71
2024/01/27 05:44:10;;;;;;;6.05;4.22;;;;;;;0.11;100.00;98450.69;5017713;28;20073;-71
2024/01/27 05:46:35;;;;;;;7.95;4.43;;;;;;;0.10;100.00;98454.47;5022017;28;20050;-72
2024/01/27 05:49:02;;;;;;;7.85;4.40;;;;;;;0.05;100.00;98449.03;5022272;28;20475;-73
2024/01/27 05:51:29;;;;;;;8.50;4.65;;;;;;;0.02;100.00;98463.00;5021654;28;20055;-72
2024/01/27 05:53:54;;;;;;;5.18;4.45;;;;;;;-0.34;100.00;98459.94;5024370;28;20042;-71
2024/01/27 05:56:22;;;;;;;5.70;4.40;;;;;;;-0.44;100.00;98469.53;5021353;28;20462;-71
2024/01/27 05:58:48;;;;;;;6.05;4.20;;;;;;;-0.40;100.00;98465.28;5022690;28;20049;-72
2024/01/27 06:01:14;;;;;;;6.22;4.40;;;;;;;-0.33;100.00;98466.97;5016571;28;20416;-72
2024/01/27 06:03:43;;;;;;;7.00;4.78;;;;;;;-0.24;100.00;98462.75;5020624;28;20045;-71
2024/01/27 06:06:08;;;;;;;6.10;4.95;;;;;;;-0.15;100.00;98458.53;5017169;28;20065;-71
2024/01/27 06:08:34;;;;;;;8.70;5.72;;;;;;;-0.26;100.00;98463.00;5021866;28;20115;-71
2024/01/27 06:10:59;;;;;;;7.43;4.60;;;;;;;-0.42;100.00;98459.31;5022188;28;20037;-71
2024/01/27 06:13:25;;;;;;;7.53;4.97;;;;;;;-0.35;100.00;98466.41;5016683;28;20072;-71
2024/01/27 06:15:50;;;;;;;9.10;5.38;;;;;;;-0.30;100.00;98458.38;5020919;28;20399;-71
2024/01/27 06:18:16;;;;;;;8.02;5.85;;;;;;;-0.32;100.00;98458.63;5016391;28;20049;-71
2024/01/27 06:20:42;;;;;;;9.48;5.75;;;;;;;-0.35;100.00;98455.63;5024256;28;20041;-71
2024/01/27 06:23:07;;;;;;;11.70;5.90;;;;;;;-0.36;100.00;98459.38;5017755;28;20042;-71
2024/01/27 06:25:33;;;;;;;7.85;5.28;;;;;;;-0.34;100.00;98462.63;5019112;28;20056;-71
2024/01/27 06:27:59;;;;;;;8.52;5.22;;;;;;;-0.29;100.00;98468.91;5021604;28;20826;-71
2024/01/27 06:30:24;;;;;;;9.93;5.43;;;;;;;-0.31;100.00;98468.31;5016829;28;20057;-71
2024/01/27 06:32:49;;;;;;;8.02;5.57;;;;;;;-0.33;100.00;98461.56;5020385;28;20107;-71
2024/01/27 06:35:15;;;;;;;7.13;4.88;;;;;;;-0.43;100.00;98462.28;5013394;28;20235;-71
2024/01/27 06:37:41;;;;;;;8.68;4.65;;;;;;;-0.41;100.00;98473.59;5019945;28;20073;-70
2024/01/27 06:40:08;;;;;;;9.77;5.10;;;;;;;-0.55;100.00;98478.56;5016938;28;20079;-71
2024/01/27 06:42:34;;;;;;;7.60;4.88;;;;;;;-0.67;100.00;98475.97;5021200;28;20118;-71
2024/01/27 06:44:59;;;;;;;8.68;4.50;;;;;;;-0.89;100.00;98489.41;5020232;28;20061;-71
2024/01/27 06:47:24;;;;;;;12.18;5.22;;;;;;;-0.89;100.00;98492.09;5015783;28;20049;-71
2024/01/27 06:49:50;;;;;;;7.72;4.68;;;;;;;-0.78;100.00;98493.06;5018588;28;20797;-70
2024/01/27 06:52:15;;;;;;;8.10;4.85;;;;;;;-0.63;100.00;98500.50;5018299;28;20474;-70
2024/01/27 06:54:43;;;;;;;8.00;5.35;;;;;;;-0.58;100.00;98497.88;5011509;28;20076;-70
2024/01/27 06:57:21;;;;;;;6.78;5.30;;;;;;;-0.65;100.00;98499.94;5016928;28;20395;-72
2024/01/27 06:59:55;;;;;;;7.47;5.15;;;;;;;-0.77;100.00;98494.69;5037464;28;20052;-72
2024/01/27 07:02:26;;;;;;;11.23;5.57;;;;;;;-0.86;100.00;98491.63;5016446;28;20167;-70
2024/01/27 07:04:52;;;;;;;9.43;6.15;;;;;;;-0.81;100.00;98497.06;5020369;28;20136;-72
2024/01/27 07:07:21;;;;;;;28.95;21.90;;;;;;;-1.20;100.00;98488.97;5015768;28;20144;-71
2024/01/27 07:09:46;;;;;;;12.15;6.22;;;;;;;-1.47;100.00;98498.78;5019326;28;20159;-71
2024/01/27 07:12:11;;;;;;;12.85;8.50;;;;;;;-1.57;100.00;98494.03;5016170;28;20498;-72
2024/01/27 07:14:37;;;;;;;10.55;6.65;;;;;;;-1.56;100.00;98507.22;5020588;28;20140;-71
2024/01/27 07:17:04;;;;;;;9.85;6.38;;;;;;;-1.31;100.00;98515.97;5027645;28;20049;-74
2024/01/27 07:19:29;;;;;;;12.35;8.50;;;;;;;-1.17;100.00;98518.06;5026665;28;20068;-71
2024/01/27 07:21:55;;;;;;;17.20;10.50;;;;;;;-1.12;100.00;98519.19;5017790;28;20065;-70
2024/01/27 07:24:20;;;;;;;14.38;9.45;;;;;;;-1.02;100.00;98509.41;5013573;28;22732;-71
2024/01/27 07:26:45;;;;;;;16.77;8.55;;;;;;;-0.98;100.00;98513.22;5017162;28;20053;-71
2024/01/27 07:29:11;;;;;;;14.35;6.95;;;;;;;-0.90;100.00;98512.00;5014170;28;20044;-71
2024/01/27 07:31:36;;;;;;;15.25;8.05;;;;;;;-0.72;100.00;98513.59;5019400;28;20503;-70
2024/01/27 07:34:02;;;;;;;15.73;8.25;;;;;;;-0.50;100.00;98510.91;5016816;28;20076;-73
2024/01/27 07:36:32;;;;;;;14.27;7.70;;;;;;;-0.35;100.00;98507.59;5017996;28;20041;-70
2024/01/27 07:38:57;;;;;;;15.13;7.95;;;;;;;-0.17;100.00;98505.66;5011864;28;20040;-71
2024/01/27 07:41:23;;;;;;;12.18;7.93;;;;;;;0.05;100.00;98514.50;5013497;28;20921;-70
2024/01/27 07:43:48;;;;;;;25.23;9.25;;;;;;;0.45;100.00;98510.59;5019847;28;20047;-71
2024/01/27 07:46:13;;;;;;;14.70;9.52;;;;;;;1.16;100.00;98511.38;5014691;28;20489;-71
2024/01/27 07:48:39;;;;;;;13.77;8.18;;;;;;;1.97;100.00;98510.13;5019657;28;20042;-70
2024/01/27 07:51:04;;;;;;;12.10;7.20;;;;;;;2.61;100.00;98514.25;5013234;28;20056;-72
2024/01/27 07:53:30;;;;;;;14.60;6.93;;;;;;;3.31;100.00;98514.47;5008979;28;20073;-71
2024/01/27 07:55:56;;;;;;;10.35;5.82;;;;;;;3.98;100.00;98509.63;5018286;28;20044;-70
2024/01/27 07:58:21;;;;;;;14.35;5.65;;;;;;;4.32;100.00;98475.50;5014297;28;20137;-70
2024/01/27 08:00:50;;;;;;;9.45;5.97;;;;;;;4.68;100.00;98475.22;5018991;28;20390;-71
2024/01/27 08:03:16;;;;;;;10.82;5.97;;;;;;;5.36;100.00;98477.00;5013229;28;20542;-71
2024/01/27 08:05:41;;;;;;;10.32;5.65;;;;;;;6.24;100.00;98480.28;5011299;28;20062;-71
2024/01/27 08:08:06;;;;;;;8.38;4.60;;;;;;;6.87;100.00;98478.19;5008524;28;20046;-73
2024/01/27 08:10:32;;;;;;;9.60;4.50;;;;;;;7.40;100.00;98490.59;5015820;28;20654;-71
2024/01/27 08:12:57;;;;;;;6.72;4.90;;;;;;;7.87;100.00;98490.50;5018996;28;20037;-72
2024/01/27 08:15:22;;;;;;;9.20;5.10;;;;;;;8.01;100.00;98502.19;5015060;28;20642;-71
2024/01/27 08:17:48;;;;;;;8.93;5.13;;;;;;;8.15;99.70;98499.44;5018610;28;20049;-70
2024/01/27 08:20:13;;;;;;;10.75;5.68;;;;;;;8.19;93.87;98508.63;5013992;28;20746;-72
2024/01/27 08:22:40;;;;;;;12.55;6.85;;;;;;;8.30;95.36;98509.22;5018707;28;20041;-71
2024/01/27 08:25:06;;;;;;;18.38;7.70;;;;;;;8.21;93.46;98514.59;5014684;28;20041;-71
2024/01/27 08:27:31;;;;;;;25.90;11.98;;;;;;;8.42;91.40;98510.31;5020639;28;20418;-73
2024/01/27 08:29:56;;;;;;;15.52;8.13;;;;;;;8.92;89.43;98514.09;5012529;28;20045;-71
2024/01/27 08:32:22;;;;;;;9.85;4.40;;;;;;;8.99;89.46;98500.78;5031744;28;20408;-71
2024/01/27 08:34:47;;;;;;;7.88;4.95;;;;;;;7.37;100.00;98494.75;5018157;28;20045;-71
2024/01/27 08:37:19;;;;;;;6.80;5.13;;;;;;;6.13;100.00;98478.81;5012456;28;20049;-71
2024/01/27 08:39:45;;;;;;;10.48;5.53;;;;;;;6.75;100.00;98480.59;5018571;28;20487;-71
2024/01/27 08:42:11;;;;;;;9.00;4.93;;;;;;;6.22;100.00;98468.06;5013703;28;20061;-71
2024/01/27 08:44:40;;;;;;;9.57;5.38;;;;;;;7.83;100.00;98477.47;5018307;28;20052;-71
2024/01/27 08:47:06;;;;;;;13.68;7.15;;;;;;;8.84;97.98;98487.50;5012835;28;20076;-71
2024/01/27 08:49:31;;;;;;;16.13;7.60;;;;;;;9.37;93.46;98476.53;5019340;28;20140;-71
2024/01/27 08:51:57;;;;;;;12.23;6.97;;;;;;;9.25;83.17;98476.31;5022998;28;20124;-72
2024/01/27 08:54:22;;;;;;;15.45;6.00;;;;;;;9.64;86.85;98471.97;5017728;28;21071;-71
2024/01/27 08:56:48;;;;;;;7.80;4.82;;;;;;;9.08;84.50;98471.59;5020776;28;20091;-72
2024/01/27 08:59:13;;;;;;;6.65;4.47;;;;;;;8.86;90.27;98468.88;5019314;28;20068;-71
2024/01/27 09:01:38;;;;;;;8.07;4.40;;;;;;;8.64;96.72;98467.75;5022389;28;20399;-72
2024/01/27 09:04:04;;;;;;;9.35;4.57;;;;;;;9.23;95.86;98467.63;5017417;28;20041;-71
2024/01/27 09:06:29;;;;;;;6.93;4.40;;;;;;;10.06;92.02;98488.81;5022518;28;20395;-71
2024/01/27 09:08:55;;;;;;;6.45;4.13;;;;;;;10.15;96.30;98494.31;5023550;28;20041;-72
2024/01/27 09:11:23;;;;;;;8.23;4.20;;;;;;;10.70;91.33;98496.47;5018670;28;20048;-72
2024/01/27 09:13:51;;;;;;;6.72;4.10;;;;;;;9.84;87.14;98495.22;5021178;28;20076;-72
2024/01/27 09:16:17;;;;;;;8.77;4.95;;;;;;;11.05;81.04;98495.63;5017119;28;20045;-72
2024/01/27 09:18:43;;;;;;;8.18;4.28;;;;;;;11.13;75.82;98508.50;5021887;28;20048;-72
2024/01/27 09:21:09;;;;;;;6.97;3.90;;;;;;;11.91;72.56;98503.91;5016172;28;20049;-71
2024/01/27 09:23:34;;;;;;;6.68;3.25;;;;;;;11.19;73.68;98511.88;5021727;28;20080;-71
2024/01/27 09:26:00;;;;;;;6.55;3.65;;;;;;;11.75;73.79;98507.16;5003208;28;20045;-71
2024/01/27 09:28:25;;;;;;;7.72;3.35;;;;;;;12.51;69.08;98519.16;5017840;28;20049;-70
2024/01/27 09:30:51;;;;;;;5.88;3.20;;;;;;;12.02;68.21;98521.59;5022080;28;20099;-71
2024/01/27 09:33:22;;;;;;;5.53;3.17;;;;;;;11.28;67.65;98507.97;5015823;28;20064;-70
2024/01/27 09:35:48;;;;;;;7.40;3.35;;;;;;;10.76;76.29;98510.81;5021811;28;20045;-70
2024/01/27 09:38:14;;;;;;;7.03;3.63;;;;;;;10.13;80.85;98507.53;5017729;28;20034;-71
2024/01/27 09:40:40;;;;;;;13.88;6.65;;;;;;;8.47;95.88;98497.69;5020210;28;20107;-70
2024/01/27 09:43:06;;;;;;;9.45;5.88;;;;;;;7.77;100.00;98478.69;5017035;28;20136;-70
2024/01/27 09:45:32;;;;;;;10.88;4.78;;;;;;;9.97;98.51;98485.25;5024144;28;20068;-71
2024/01/27 09:48:00;;;;;;;13.27;5.07;;;;;;;8.66;97.48;98487.41;5023358;28;20041;-69
2024/01/27 09:50:26;;;;;;;11.18;4.20;;;;;;;8.41;100.00;98494.25;5016970;28;20049;-70
2024/01/27 09:52:52;;;;;;;7.95;4.55;;;;;;;9.34;96.80;98479.09;5021946;28;20089;-70
2024/01/27 09:55:17;;;;;;;10.02;3.72;;;;;;;10.21;86.23;98497.69;5015374;28;20037;-71
2024/01/27 09:57:44;;;;;;;9.90;4.30;;;;;;;11.29;75.87;98497.81;5020733;28;20483;-70
2024/01/27 10:00:13;;;;;;;10.43;4.20;;;;;;;10.89;82.55;98487.09;5018568;28;20041;-72
2024/01/27 10:02:40;;;;;;;5.55;3.15;;;;;;;11.35;73.95;98491.03;5030648;28;20117;-70
2024/01/27 10:05:11;;;;;;;12.43;4.68;;;;;;;10.03;83.90;98489.47;5023710;28;20079;-71
2024/01/27 10:07:36;;;;;;;7.82;3.42;;;;;;;8.52;92.78;98486.66;5008688;28;20832;-71
2024/01/27 10:10:02;;;;;;;11.23;4.40;;;;;;;9.28;100.00;98478.44;5034211;28;20107;-72
2024/01/27 10:12:28;;;;;;;10.23;3.40;;;;;;;9.29;93.79;98493.72;5018994;28;20045;-71
2024/01/27 10:14:54;;;;;;;7.85;2.97;;;;;;;8.14;98.68;98484.16;5018364;28;20527;-70
2024/01/27 10:17:25;;;;;;;10.40;3.30;;;;;;;7.51;100.00;98472.94;5017533;28;20041;-71
2024/01/27 10:20:04;;;;;;;9.52;3.33;;;;;;;7.34;100.00;98465.34;5022534;28;20555;-70
2024/01/27 10:22:39;;;;;;;14.15;2.85;;;;;;;7.00;100.00;98477.41;5036648;28;20046;-70
2024/01/27 10:25:06;;;;;;;11.85;4.82;;;;;;;6.91;100.00;98467.50;5008731;28;20046;-71
2024/01/27 10:27:32;;;;;;;12.77;4.57;;;;;;;7.51;100.00;98483.03;5019230;28;20051;-70
2024/01/27 10:29:57;;;;;;;7.32;2.92;;;;;;;7.87;100.00;98469.50;5036531;28;20034;-70
2024/01/27 10:32:23;;;;;;;8.27;3.40;;;;;;;7.66;100.00;98475.34;5013283;28;20056;-70
2024/01/27 10:35:08;;;;;;;8.65;3.15;;;;;;;8.01;97.80;98478.47;5003501;28;20054;-70
2024/01/27 10:37:33;;;;;;;9.68;3.08;;;;;;;8.30;97.22;98469.09;5018093;28;20044;-69
2024/01/27 10:40:09;;;;;;;8.27;2.45;;;;;;;7.91;91.79;98461.50;5021095;28;20053;-71
2024/01/27 10:42:35;;;;;;;7.97;2.17;;;;;;;8.08;81.53;98469.03;5021875;28;20080;-71
2024/01/27 10:45:02;;;;;;;9.05;3.75;;;;;;;7.69;89.29;98476.69;5020594;28;20650;-72
2024/01/27 10:47:31;;;;;;;9.65;3.20;;;;;;;6.86;95.06;98468.41;5019845;28;20042;-71
2024/01/27 10:49:58;;;;;;;8.35;3.53;;;;;;;7.06;96.49;98465.34;5020485;28;20522;-70
2024/01/27 10:52:28;;;;;;;10.65;2.90;;;;;;;7.47;97.14;98461.00;5012992;28;20049;-71
2024/01/27 10:55:03;;;;;;;7.35;3.10;;;;;;;7.35;96.37;98458.81;5020638;28;20140;-71
2024/01/27 10:57:33;;;;;;;10.05;3.42;;;;;;;7.17;97.40;98457.78;5017901;28;20042;-69
2024/01/27 11:00:00;;;;;;;9.57;2.80;;;;;;;7.93;93.92;98451.88;5019987;28;20061;-70
2024/01/27 11:02:32;;;;;;;6.93;3.47;;;;;;;8.03;92.99;98442.66;5017624;28;20107;-70
2024/01/27 11:05:00;;;;;;;9.57;2.78;;;;;;;8.00;88.50;98438.63;5018164;28;20080;-70
2024/01/27 11:07:25;;;;;;;8.98;3.22;;;;;;;7.75;89.43;98437.25;5014663;28;20042;-70
2024/01/27 11:09:54;;;;;;;10.20;2.45;;;;;;;7.22;95.51;98421.44;5019794;28;20049;-70
2024/01/27 11:12:22;;;;;;;14.40;3.60;;;;;;;7.23;95.48;98425.78;5015630;28;20376;-70
2024/01/27 11:14:48;;;;;;;10.88;3.67;;;;;;;6.88;98.67;98422.63;5019074;28;20049;-70
2024/01/27 11:17:15;;;;;;;6.88;3.67;;;;;;;6.88;100.00;98419.91;5017967;28;20069;-70
2024/01/27 11:19:41;;;;;;;7.75;3.30;;;;;;;7.48;100.00;98419.03;5021089;28;20387;-70
2024/01/27 11:22:07;;;;;;;10.93;3.97;;;;;;;7.13;100.00;98410.44;5016282;28;20041;-69
2024/01/27 11:24:32;;;;;;;8.73;4.57;;;;;;;7.38;100.00;98413.75;5003189;28;20147;-71
2024/01/27 11:27:04;;;;;;;9.35;3.90;;;;;;;7.00;100.00;98395.69;5019614;28;20063;-71